KFDR/FDR METAR and TAF weather

Enter ICAO airport designator
Station Type Date Time Source
KFDR METAR 2020/03/31 07:53 UTC NOAA

KFDR 310753Z AUTO 33006KT 10SM OVC012 11/09 A3000 RMK AO2 SLP153 T01110094


Station Type Date Time Source
KFDR Decoded METAR 2020/03/31 07:53 UTC NOAA

FREDERICK MUNICIPAL AIRPORT, OK, United States (KFDR) 34-21N 98-59W 377M
Mar 31, 2020 - 03:53 AM EDT / 2020.03.31 0753 UTC
Wind: from the NNW (330 degrees) at 7 MPH (6 KT):0
Visibility: 10 mile(s):0
Sky conditions: overcast
Temperature: 52.0 F (11.1 C)
Dew Point: 48.9 F (9.4 C)
Relative Humidity: 89%
Pressure (altimeter): 30 in. Hg (1015 hPa)
ob: KFDR 310753Z AUTO 33006KT 10SM OVC012 11/09 A3000 RMK AO2 SLP153 T01110094
cycle: 8

Station Type Date Time Source
KFDR TAF UTC NOAA

Error!

Example: see airport list